createdAt,value
2018-10-05T00:00:40.375Z,0.00
2018-10-05T00:01:40.574Z,0.00
2018-10-05T00:02:40.405Z,0.00
2018-10-05T00:03:40.420Z,0.00
2018-10-05T00:04:40.421Z,0.00
2018-10-05T00:05:40.437Z,0.00
2018-10-05T00:06:40.451Z,0.00
2018-10-05T00:07:40.572Z,0.00
2018-10-05T00:08:40.492Z,0.00
2018-10-05T00:09:40.620Z,0.00
2018-10-05T00:10:40.520Z,0.00
2018-10-05T00:11:40.570Z,0.00
2018-10-05T00:12:40.764Z,0.00
2018-10-05T00:13:40.561Z,0.00
2018-10-05T00:14:40.570Z,0.00
2018-10-05T00:15:40.581Z,0.00
2018-10-05T00:16:40.606Z,0.00
2018-10-05T00:17:40.755Z,0.00
2018-10-05T00:18:40.608Z,0.00
2018-10-05T00:19:40.651Z,0.00
2018-10-05T00:20:40.633Z,0.00
2018-10-05T00:21:40.669Z,0.00
2018-10-05T00:22:40.813Z,0.00
2018-10-05T00:23:40.697Z,0.00
2018-10-05T00:24:40.693Z,0.00
2018-10-05T00:25:40.710Z,0.00
2018-10-05T00:26:40.729Z,0.00
2018-10-05T00:27:40.939Z,0.00
2018-10-05T00:28:40.743Z,0.00
2018-10-05T00:29:40.889Z,0.00
2018-10-05T00:30:40.772Z,0.00
2018-10-05T00:31:40.790Z,0.00
2018-10-05T00:32:40.970Z,0.00
2018-10-05T00:33:40.809Z,0.00
2018-10-05T00:34:40.833Z,0.00
2018-10-05T00:35:40.854Z,0.00
2018-10-05T00:36:40.858Z,0.00
2018-10-05T00:37:41.024Z,0.00
2018-10-05T00:38:40.894Z,0.00
2018-10-05T00:39:40.928Z,0.00
2018-10-05T00:40:40.899Z,0.00
2018-10-05T00:41:40.945Z,0.00
2018-10-05T00:42:41.034Z,0.00
2018-10-05T00:43:40.959Z,0.00
2018-10-05T00:44:40.963Z,0.00
2018-10-05T00:46:40.996Z,0.00
2018-10-05T00:47:41.046Z,0.00
2018-10-05T00:48:41.167Z,0.00
2018-10-05T00:49:41.028Z,0.00
2018-10-05T00:50:41.056Z,0.00
2018-10-05T00:51:41.068Z,0.00
2018-10-05T00:52:41.194Z,0.00
2018-10-05T00:53:41.192Z,0.00
2018-10-05T00:54:41.107Z,0.00
2018-10-05T00:55:41.123Z,0.00
2018-10-05T00:56:41.169Z,0.00
2018-10-05T00:57:41.192Z,0.00
2018-10-05T00:58:41.192Z,0.00
2018-10-05T00:59:41.166Z,0.00
2018-10-05T01:00:41.179Z,0.00
2018-10-05T01:01:41.218Z,0.00
2018-10-05T01:02:41.367Z,0.00
2018-10-05T01:03:41.256Z,0.00
2018-10-05T01:04:41.237Z,0.00
2018-10-05T01:05:41.246Z,0.00
2018-10-05T01:06:41.259Z,0.00
2018-10-05T01:07:41.444Z,0.00
2018-10-05T01:08:41.279Z,0.00
2018-10-05T01:09:41.294Z,0.00
2018-10-05T01:10:41.316Z,0.00
2018-10-05T01:11:41.321Z,0.00
2018-10-05T01:12:41.502Z,0.00
2018-10-05T01:13:41.478Z,0.00
2018-10-05T01:14:41.368Z,0.00
2018-10-05T01:15:41.393Z,0.00
2018-10-05T01:16:41.444Z,0.00
2018-10-05T01:17:41.530Z,0.00
2018-10-05T01:18:41.437Z,0.00
2018-10-05T01:19:41.429Z,0.00
2018-10-05T01:20:41.436Z,0.00
2018-10-05T01:21:41.586Z,0.00
2018-10-05T01:22:41.532Z,0.00
2018-10-05T01:23:41.482Z,0.00
2018-10-05T01:24:41.524Z,0.00
2018-10-05T01:25:41.513Z,0.00
2018-10-05T01:26:41.535Z,0.00
2018-10-05T01:27:41.542Z,0.00
2018-10-05T01:28:41.713Z,0.00
2018-10-05T01:29:41.582Z,0.00
2018-10-05T01:30:41.705Z,0.00
2018-10-05T01:31:41.636Z,0.00
2018-10-05T01:32:41.622Z,0.00
2018-10-05T01:33:41.725Z,0.00
2018-10-05T01:34:41.638Z,0.00
2018-10-05T01:35:41.639Z,0.00
2018-10-05T01:36:41.657Z,0.00
2018-10-05T01:37:41.804Z,0.00
2018-10-05T01:38:41.834Z,0.00
2018-10-05T01:39:41.698Z,0.00
2018-10-05T01:40:41.747Z,0.00
2018-10-05T01:41:41.772Z,0.00
2018-10-05T01:42:41.754Z,0.00
2018-10-05T01:43:41.927Z,0.00
2018-10-05T01:44:41.775Z,0.00
2018-10-05T01:45:41.845Z,0.00
2018-10-05T01:46:41.803Z,0.00
2018-10-05T01:47:41.937Z,0.00
2018-10-05T01:48:41.935Z,0.00
2018-10-05T01:49:41.837Z,0.00
2018-10-05T01:50:41.859Z,0.00
2018-10-05T01:51:41.864Z,0.00
2018-10-05T01:52:41.890Z,0.00
2018-10-05T01:53:41.998Z,0.00
2018-10-05T01:54:41.896Z,0.00
2018-10-05T01:55:41.921Z,0.00
2018-10-05T01:56:41.952Z,0.00
2018-10-05T01:57:41.960Z,0.00
2018-10-05T01:58:42.050Z,0.00
2018-10-05T01:59:41.993Z,0.00
2018-10-05T02:00:41.999Z,0.00
2018-10-05T02:01:42.128Z,0.00
2018-10-05T02:02:42.101Z,0.00
2018-10-05T02:03:42.183Z,0.00
2018-10-05T02:04:42.032Z,0.00
2018-10-05T02:05:42.057Z,0.00
2018-10-05T02:06:42.073Z,0.00
2018-10-05T02:07:42.081Z,0.00
2018-10-05T02:08:42.241Z,0.00
2018-10-05T02:09:42.111Z,0.00
2018-10-05T02:10:42.124Z,0.00
2018-10-05T02:11:42.161Z,0.00
2018-10-05T02:12:42.188Z,0.00
2018-10-05T02:13:42.323Z,0.00
2018-10-05T02:14:42.167Z,0.00
2018-10-05T02:15:42.184Z,0.00
2018-10-05T02:16:42.328Z,0.00
2018-10-05T02:17:42.222Z,0.00
2018-10-05T02:18:42.327Z,0.00
2018-10-05T02:19:42.365Z,0.00
2018-10-05T02:20:42.249Z,0.00
2018-10-05T02:21:42.293Z,0.00
2018-10-05T02:22:42.294Z,0.00
2018-10-05T02:23:42.344Z,0.00
2018-10-05T02:24:42.315Z,0.00
2018-10-05T02:25:42.322Z,0.00
2018-10-05T02:26:42.450Z,0.00
2018-10-05T02:27:42.394Z,0.00
2018-10-05T02:28:42.362Z,0.00
2018-10-05T02:29:42.366Z,0.00
2018-10-05T02:30:42.380Z,0.00
2018-10-05T02:31:42.551Z,0.00
2018-10-05T02:32:42.415Z,0.00
2018-10-05T02:33:42.441Z,0.00
2018-10-05T02:34:42.449Z,0.00
2018-10-05T02:35:42.489Z,0.00
2018-10-05T02:36:42.553Z,0.00
2018-10-05T02:37:42.480Z,0.00
2018-10-05T02:38:42.504Z,0.00
2018-10-05T02:39:42.677Z,0.00
2018-10-05T02:40:42.568Z,0.00
2018-10-05T02:41:42.611Z,0.00
2018-10-05T02:42:42.569Z,0.00
2018-10-05T02:43:42.579Z,0.00
2018-10-05T02:44:42.728Z,0.00
2018-10-05T02:45:42.589Z,0.00
2018-10-05T02:46:42.605Z,0.00
2018-10-05T02:47:42.619Z,0.00
2018-10-05T02:48:42.754Z,0.00
2018-10-05T02:49:42.868Z,0.00
2018-10-05T02:50:42.784Z,0.00
2018-10-05T02:51:42.692Z,0.00
2018-10-05T02:52:42.712Z,0.00
2018-10-05T02:53:42.707Z,0.00
2018-10-05T02:54:42.989Z,0.00
2018-10-05T02:55:42.853Z,0.00
2018-10-05T02:56:42.787Z,0.00
2018-10-05T02:57:42.764Z,0.00
2018-10-05T02:58:42.765Z,0.00
2018-10-05T02:59:42.925Z,0.00
2018-10-05T03:00:42.795Z,0.00
2018-10-05T03:01:42.799Z,0.00
2018-10-05T03:02:42.825Z,0.00
2018-10-05T03:03:42.855Z,0.00
2018-10-05T03:04:42.991Z,0.00
2018-10-05T03:05:42.858Z,0.00
2018-10-05T03:06:42.873Z,0.00
2018-10-05T03:07:42.881Z,0.00
2018-10-05T03:08:43.025Z,0.00
2018-10-05T03:09:43.140Z,0.00
2018-10-05T03:10:42.939Z,0.00
2018-10-05T03:11:42.947Z,0.00
2018-10-05T03:12:42.954Z,0.00
2018-10-05T03:13:42.970Z,0.00
2018-10-05T03:14:43.149Z,0.00
2018-10-05T03:15:42.996Z,0.00
2018-10-05T03:16:43.131Z,0.00
2018-10-05T03:17:43.020Z,0.00
2018-10-05T03:18:43.092Z,0.00
2018-10-05T03:19:43.246Z,0.00
2018-10-05T03:20:43.186Z,0.00
2018-10-05T03:21:43.088Z,0.00
2018-10-05T03:22:43.104Z,0.00
2018-10-05T03:23:43.104Z,0.00
2018-10-05T03:24:43.278Z,0.00
2018-10-05T03:25:43.128Z,0.00
2018-10-05T03:26:43.134Z,0.00
2018-10-05T03:27:43.163Z,0.00
2018-10-05T03:28:43.184Z,0.00
2018-10-05T03:29:43.407Z,0.00
2018-10-05T03:30:43.208Z,0.00
2018-10-05T03:31:43.223Z,0.00
2018-10-05T03:32:43.227Z,0.00
2018-10-05T03:33:43.242Z,0.00
2018-10-05T03:34:43.303Z,0.00
2018-10-05T03:35:43.280Z,0.00
2018-10-05T03:36:43.297Z,0.00
2018-10-05T03:37:43.437Z,0.00
2018-10-05T03:38:43.295Z,0.00
2018-10-05T03:39:43.312Z,0.00
2018-10-05T03:40:43.343Z,0.00
2018-10-05T03:41:43.348Z,0.00
2018-10-05T03:42:43.509Z,0.00
2018-10-05T03:43:43.392Z,0.00
2018-10-05T03:44:43.385Z,0.00
2018-10-05T03:45:43.403Z,0.00
2018-10-05T03:46:43.409Z,0.00
2018-10-05T03:47:43.528Z,0.00
2018-10-05T03:48:43.561Z,0.00
2018-10-05T03:49:43.572Z,0.00
2018-10-05T03:50:43.467Z,0.00
2018-10-05T03:51:43.495Z,0.00
2018-10-05T03:52:43.637Z,0.00
2018-10-05T03:53:43.512Z,0.00
2018-10-05T03:54:43.508Z,0.00
2018-10-05T03:55:43.536Z,0.00
2018-10-05T03:56:43.551Z,0.00
2018-10-05T03:57:43.662Z,0.00
2018-10-05T03:58:43.571Z,0.00
2018-10-05T03:59:43.594Z,0.00
2018-10-05T04:00:43.646Z,0.00
2018-10-05T04:01:43.602Z,0.00
2018-10-05T04:02:43.728Z,0.00
2018-10-05T04:03:43.635Z,0.00
2018-10-05T04:04:43.694Z,0.00
2018-10-05T04:05:43.663Z,0.00
2018-10-05T04:06:43.737Z,0.00
2018-10-05T04:07:43.841Z,0.00
2018-10-05T04:08:43.708Z,0.00
2018-10-05T04:09:43.729Z,0.00
2018-10-05T04:10:43.729Z,0.00
2018-10-05T04:11:43.762Z,0.00
2018-10-05T04:12:43.808Z,0.00
2018-10-05T04:13:43.766Z,0.00
2018-10-05T04:14:43.786Z,0.00
2018-10-05T04:15:43.797Z,0.00
2018-10-05T04:16:43.820Z,0.00
2018-10-05T04:17:43.970Z,0.00
2018-10-05T04:18:43.852Z,0.00
2018-10-05T04:19:43.856Z,0.00
2018-10-05T04:20:43.989Z,0.00
2018-10-05T04:21:43.898Z,0.00
2018-10-05T04:22:44.059Z,0.00
2018-10-05T04:23:43.911Z,0.00
2018-10-05T04:24:43.930Z,0.00
2018-10-05T04:25:43.942Z,0.00
2018-10-05T04:26:43.946Z,0.00
2018-10-05T04:27:44.099Z,0.00
2018-10-05T04:28:43.973Z,0.00
2018-10-05T04:29:43.980Z,0.00
2018-10-05T04:30:43.988Z,0.00
2018-10-05T04:31:44.132Z,0.00
2018-10-05T04:32:44.178Z,0.00
2018-10-05T04:33:44.159Z,0.00
2018-10-05T04:34:44.059Z,0.00
2018-10-05T04:35:44.131Z,0.00
2018-10-05T04:36:44.078Z,0.00
2018-10-05T04:37:44.443Z,0.00
2018-10-05T04:38:44.113Z,0.00
2018-10-05T04:39:44.237Z,0.00
2018-10-05T04:40:44.146Z,0.00
2018-10-05T04:41:44.185Z,0.00
2018-10-05T04:42:44.160Z,0.00
2018-10-05T04:43:44.220Z,0.00
2018-10-05T04:44:44.305Z,0.00
2018-10-05T04:45:44.201Z,0.00
2018-10-05T04:46:44.220Z,0.00
2018-10-05T04:47:44.218Z,0.00
2018-10-05T04:48:44.306Z,0.00
2018-10-05T04:49:44.353Z,0.00
2018-10-05T04:50:44.375Z,0.00
2018-10-05T04:51:44.272Z,0.00
2018-10-05T04:52:44.300Z,0.00
2018-10-05T04:53:44.294Z,0.00
2018-10-05T04:54:44.314Z,0.00
2018-10-05T04:55:44.483Z,0.00
2018-10-05T04:56:44.364Z,0.00
2018-10-05T04:57:44.374Z,0.00
2018-10-05T04:58:45.880Z,0.00
2018-10-05T04:59:44.374Z,0.00
2018-10-05T05:00:44.505Z,0.00
2018-10-05T05:01:44.413Z,0.00
2018-10-05T05:02:44.444Z,0.00
2018-10-05T05:03:44.439Z,0.00
2018-10-05T05:04:44.444Z,0.00
2018-10-05T05:05:44.620Z,0.00
2018-10-05T05:06:44.477Z,0.00
2018-10-05T05:07:44.488Z,0.00
2018-10-05T05:08:44.488Z,0.00
2018-10-05T05:09:44.513Z,0.00
2018-10-05T05:10:44.578Z,0.00
2018-10-05T05:11:44.540Z,0.00
2018-10-05T05:12:44.545Z,0.00
2018-10-05T05:13:44.565Z,0.00
2018-10-05T05:14:44.573Z,0.00
2018-10-05T05:15:44.869Z,0.00
2018-10-05T05:16:44.651Z,0.00
2018-10-05T05:17:44.610Z,0.00
2018-10-05T05:18:44.624Z,0.00
2018-10-05T05:19:44.743Z,0.00
2018-10-05T05:20:44.763Z,0.00
2018-10-05T05:21:44.664Z,0.00
2018-10-05T05:22:44.696Z,0.00
2018-10-05T05:23:44.693Z,0.00
2018-10-05T05:24:44.730Z,0.00
2018-10-05T05:25:44.832Z,0.00
2018-10-05T05:26:44.748Z,0.00
2018-10-05T05:27:44.747Z,0.00
2018-10-05T05:28:44.757Z,0.00
2018-10-05T05:29:44.900Z,0.00
2018-10-05T05:30:44.936Z,0.00
2018-10-05T05:31:44.801Z,0.00
2018-10-05T05:32:44.816Z,0.00
2018-10-05T05:33:44.840Z,0.00
2018-10-05T05:34:44.852Z,0.00
2018-10-05T05:35:44.952Z,0.00
2018-10-05T05:36:44.858Z,0.00
2018-10-05T05:37:44.888Z,0.00
2018-10-05T05:38:44.958Z,0.00
2018-10-05T05:39:44.905Z,0.00
2018-10-05T05:40:45.084Z,0.00
2018-10-05T05:41:44.943Z,0.00
2018-10-05T05:42:44.938Z,0.00
2018-10-05T05:43:44.975Z,0.00
2018-10-05T05:44:44.965Z,0.00
2018-10-05T05:45:45.101Z,0.00
2018-10-05T05:46:45.023Z,0.00
2018-10-05T05:47:45.013Z,0.00
2018-10-05T05:48:45.017Z,0.00
2018-10-05T05:49:45.039Z,0.00
2018-10-05T05:50:45.217Z,0.00
2018-10-05T05:51:45.057Z,0.00
2018-10-05T05:52:45.092Z,0.00
2018-10-05T05:53:45.092Z,0.00
2018-10-05T05:54:45.119Z,0.00
2018-10-05T05:55:45.265Z,0.00
2018-10-05T05:56:45.121Z,0.00
2018-10-05T05:57:45.151Z,0.00
2018-10-05T05:58:45.149Z,0.00
2018-10-05T05:59:45.166Z,0.00
2018-10-05T06:00:45.307Z,0.00
2018-10-05T06:01:45.252Z,0.00
2018-10-05T06:02:45.214Z,0.00
2018-10-05T06:03:45.334Z,0.00
2018-10-05T06:04:45.373Z,0.00
2018-10-05T06:05:45.370Z,0.00
2018-10-05T06:06:45.309Z,0.00
2018-10-05T06:07:45.287Z,0.00
2018-10-05T06:08:45.431Z,0.00
2018-10-05T06:09:45.313Z,0.00
2018-10-05T06:10:45.315Z,0.00
2018-10-05T06:11:45.341Z,0.00
2018-10-05T06:12:45.467Z,0.00
2018-10-05T06:13:45.514Z,0.00
2018-10-05T06:14:45.364Z,0.00
2018-10-05T06:15:45.421Z,0.00
2018-10-05T06:16:45.394Z,0.00
2018-10-05T06:17:45.425Z,0.00
2018-10-05T06:18:45.524Z,0.00
2018-10-05T06:19:45.452Z,0.00
2018-10-05T06:20:45.443Z,0.00
2018-10-05T06:21:45.717Z,0.00
2018-10-05T06:22:45.474Z,0.00
2018-10-05T06:23:45.635Z,0.00
2018-10-05T06:24:45.547Z,0.00
2018-10-05T06:25:45.529Z,0.00
2018-10-05T06:26:45.525Z,0.00
2018-10-05T06:27:45.541Z,0.00
2018-10-05T06:28:45.822Z,0.00
2018-10-05T06:29:45.566Z,0.00
2018-10-05T06:30:45.661Z,0.00
2018-10-05T06:31:45.582Z,0.00
2018-10-05T06:32:45.595Z,0.00
2018-10-05T06:33:45.842Z,0.00
2018-10-05T06:34:45.636Z,0.00
2018-10-05T06:35:45.671Z,0.00
2018-10-05T06:36:45.668Z,0.00
2018-10-05T06:37:45.681Z,0.00
2018-10-05T06:38:45.846Z,0.00
2018-10-05T06:39:45.820Z,0.00
2018-10-05T06:40:45.759Z,0.00
2018-10-05T06:41:45.881Z,0.00
2018-10-05T06:42:45.740Z,0.00
2018-10-05T06:43:45.848Z,0.00
2018-10-05T06:44:45.761Z,0.00
2018-10-05T06:45:45.774Z,0.00
2018-10-05T06:46:45.840Z,0.00
2018-10-05T06:47:45.793Z,0.00
2018-10-05T06:48:45.979Z,0.00
2018-10-05T06:49:45.954Z,0.00
2018-10-05T06:50:45.893Z,0.00
2018-10-05T06:51:45.848Z,0.00
2018-10-05T06:52:45.921Z,0.00
2018-10-05T06:53:45.986Z,0.00
2018-10-05T06:54:45.905Z,0.00
2018-10-05T06:55:46.034Z,0.00
2018-10-05T06:56:45.928Z,0.00
2018-10-05T06:57:45.931Z,0.00
2018-10-05T06:58:45.995Z,0.00
2018-10-05T06:59:46.087Z,0.00
2018-10-05T07:00:45.985Z,0.00
2018-10-05T07:01:46.036Z,0.00
2018-10-05T07:02:46.113Z,0.00
2018-10-05T07:03:46.037Z,0.00
2018-10-05T07:04:46.153Z,0.00
2018-10-05T07:05:46.085Z,0.00
2018-10-05T07:06:46.063Z,0.00
2018-10-05T07:07:46.244Z,0.00
2018-10-05T07:08:46.132Z,0.00
2018-10-05T07:09:46.216Z,0.00
2018-10-05T07:10:46.120Z,0.00
2018-10-05T07:11:46.118Z,0.00
2018-10-05T07:12:46.134Z,0.00
2018-10-05T07:13:46.316Z,0.00
2018-10-05T07:14:46.168Z,0.00
2018-10-05T07:15:46.253Z,0.00
2018-10-05T07:16:46.242Z,0.00
2018-10-05T07:17:46.201Z,0.00
2018-10-05T07:18:46.354Z,0.00
2018-10-05T07:19:46.231Z,0.00
2018-10-05T07:20:46.361Z,0.00
2018-10-05T07:21:46.271Z,0.00
2018-10-05T07:22:46.390Z,0.00
2018-10-05T07:23:46.427Z,0.00
2018-10-05T07:24:46.413Z,0.00
2018-10-05T07:25:46.310Z,0.00
2018-10-05T07:26:46.318Z,0.00
2018-10-05T07:27:46.373Z,0.00
2018-10-05T07:28:46.511Z,0.00
2018-10-05T07:29:46.367Z,0.00
2018-10-05T07:30:46.369Z,0.00
2018-10-05T07:31:46.377Z,0.00
2018-10-05T07:32:46.401Z,0.00
2018-10-05T07:33:46.552Z,0.00
2018-10-05T07:34:46.412Z,0.00
2018-10-05T07:35:46.561Z,0.00
2018-10-05T07:36:46.470Z,0.00
2018-10-05T07:37:46.460Z,0.00
2018-10-05T07:38:46.590Z,0.00
2018-10-05T07:39:46.515Z,0.00
2018-10-05T07:40:46.502Z,0.00
2018-10-05T07:41:46.539Z,0.00
2018-10-05T07:42:46.534Z,0.00
2018-10-05T07:43:46.619Z,0.00
2018-10-05T07:44:46.545Z,0.00
2018-10-05T07:45:46.582Z,0.00
2018-10-05T07:46:46.608Z,0.00
2018-10-05T07:47:46.602Z,0.00
2018-10-05T07:48:46.726Z,0.00
2018-10-05T07:49:46.632Z,0.00
2018-10-05T07:50:46.639Z,0.00
2018-10-05T07:51:46.687Z,0.00
2018-10-05T07:52:46.674Z,0.00
2018-10-05T07:53:46.773Z,0.00
2018-10-05T07:54:46.697Z,0.00
2018-10-05T07:55:46.702Z,0.00
2018-10-05T07:56:46.724Z,0.00
2018-10-05T07:57:46.747Z,0.00
2018-10-05T07:58:46.915Z,0.00
2018-10-05T07:59:46.741Z,0.00
2018-10-05T08:00:46.770Z,0.00
2018-10-05T08:01:46.776Z,0.00
2018-10-05T08:02:46.795Z,0.00
2018-10-05T08:03:46.894Z,0.00
2018-10-05T08:04:46.830Z,0.00
2018-10-05T08:05:46.829Z,0.00
2018-10-05T08:06:46.847Z,0.00
2018-10-05T08:07:46.981Z,0.00
2018-10-05T08:08:46.981Z,0.00
2018-10-05T08:09:46.881Z,0.00
2018-10-05T08:10:46.951Z,0.00
2018-10-05T08:11:46.935Z,0.00
2018-10-05T08:12:46.924Z,0.00
2018-10-05T08:13:47.096Z,0.00
2018-10-05T08:14:46.948Z,0.00
2018-10-05T08:15:47.086Z,0.00
2018-10-05T08:16:46.975Z,0.00
2018-10-05T08:17:46.988Z,0.00
2018-10-05T08:18:47.106Z,0.00
2018-10-05T08:19:47.007Z,0.00
2018-10-05T08:20:47.022Z,0.00
2018-10-05T08:21:47.041Z,0.00
2018-10-05T08:22:47.053Z,0.00
2018-10-05T08:23:47.187Z,4.00
2018-10-05T08:24:47.095Z,0.00
2018-10-05T08:25:47.113Z,4.00
2018-10-05T08:26:47.106Z,4.00
2018-10-05T08:27:47.134Z,8.00
2018-10-05T08:28:47.189Z,4.00
2018-10-05T08:29:47.155Z,8.00
2018-10-05T08:30:47.150Z,12.00
2018-10-05T08:31:47.177Z,12.00
2018-10-05T08:32:47.226Z,16.00
2018-10-05T08:33:47.194Z,20.00
2018-10-05T08:34:47.227Z,20.00
2018-10-05T08:35:47.236Z,28.00
2018-10-05T08:36:47.240Z,28.00
2018-10-05T08:37:47.350Z,32.00
2018-10-05T08:38:47.254Z,40.00
2018-10-05T08:39:47.431Z,44.00
2018-10-05T08:40:47.311Z,52.00
2018-10-05T08:41:47.298Z,60.00
2018-10-05T08:42:47.387Z,68.00
2018-10-05T08:43:47.450Z,68.00
2018-10-05T08:44:47.338Z,80.00
2018-10-05T08:45:47.586Z,72.00
2018-10-05T08:46:47.363Z,100.00
2018-10-05T08:47:47.395Z,108.00
2018-10-05T08:48:47.406Z,96.00
2018-10-05T08:49:47.431Z,100.00
2018-10-05T08:50:47.572Z,112.00
2018-10-05T08:51:47.454Z,128.00
2018-10-05T08:52:47.570Z,156.00
2018-10-05T08:53:47.469Z,148.00
2018-10-05T08:54:47.485Z,152.00
2018-10-05T08:55:47.592Z,164.00
2018-10-05T08:56:47.497Z,192.00
2018-10-05T08:57:47.500Z,176.00
2018-10-05T08:58:47.526Z,176.00
2018-10-05T08:59:47.547Z,160.00
2018-10-05T09:00:47.695Z,176.00
2018-10-05T09:01:47.581Z,196.00
2018-10-05T09:02:47.593Z,196.00
2018-10-05T09:03:47.594Z,208.00
2018-10-05T09:04:47.644Z,224.00
2018-10-05T09:05:47.830Z,256.00
2018-10-05T09:06:47.639Z,264.00
2018-10-05T09:07:47.767Z,296.00
2018-10-05T09:08:47.663Z,352.00
2018-10-05T09:09:47.665Z,360.00
2018-10-05T09:10:47.904Z,368.00
2018-10-05T09:11:47.699Z,392.00
2018-10-05T09:12:47.717Z,404.00
2018-10-05T09:13:47.708Z,452.00
2018-10-05T09:14:47.726Z,468.00
2018-10-05T09:15:47.909Z,448.00
2018-10-05T09:16:47.751Z,456.00
2018-10-05T09:17:47.897Z,476.00
2018-10-05T09:18:47.904Z,556.00
2018-10-05T09:19:47.809Z,636.00
2018-10-05T09:20:47.880Z,756.00
2018-10-05T09:21:47.822Z,716.00
2018-10-05T09:22:47.833Z,644.00
2018-10-05T09:23:47.851Z,656.00
2018-10-05T09:24:47.862Z,760.00
2018-10-05T09:25:47.975Z,800.00
2018-10-05T09:26:47.875Z,876.00
2018-10-05T09:27:47.902Z,864.00
2018-10-05T09:28:47.900Z,912.00
2018-10-05T09:29:47.937Z,948.00
2018-10-05T09:30:48.127Z,988.00
2018-10-05T09:31:47.942Z,924.00
2018-10-05T09:32:47.952Z,944.00
2018-10-05T09:33:47.996Z,924.00
2018-10-05T09:34:47.975Z,980.00
2018-10-05T09:35:48.150Z,992.00
2018-10-05T09:36:48.008Z,908.00
2018-10-05T09:37:48.066Z,932.00
2018-10-05T09:38:48.075Z,1084.00
2018-10-05T09:39:48.044Z,1236.00
2018-10-05T09:40:48.271Z,1424.00
2018-10-05T09:41:48.077Z,1588.00
2018-10-05T09:42:48.096Z,1820.00
2018-10-05T09:43:48.107Z,1712.00
2018-10-05T09:44:48.200Z,1320.00
2018-10-05T09:45:48.225Z,1464.00
2018-10-05T09:46:48.257Z,1612.00
2018-10-05T09:47:48.158Z,1464.00
2018-10-05T09:48:48.281Z,1552.00
2018-10-05T09:49:48.175Z,1976.00
2018-10-05T09:50:48.340Z,2044.00
2018-10-05T09:51:48.216Z,2072.00
2018-10-05T09:52:48.426Z,2388.00
2018-10-05T09:53:48.220Z,2452.00
2018-10-05T09:54:48.239Z,2508.00
2018-10-05T09:55:48.319Z,3376.00
2018-10-05T09:56:48.251Z,3284.00
2018-10-05T09:57:48.301Z,2500.00
2018-10-05T09:58:48.292Z,3268.00
2018-10-05T09:59:48.443Z,3788.00
2018-10-05T10:00:48.584Z,4468.00
2018-10-05T10:01:48.335Z,4856.00
2018-10-05T10:02:48.332Z,4760.00
2018-10-05T10:03:48.353Z,4464.00
2018-10-05T10:04:48.365Z,4580.00
2018-10-05T10:05:48.456Z,4288.00
2018-10-05T10:06:48.511Z,4372.00
2018-10-05T10:07:48.450Z,4312.00
2018-10-05T10:08:48.451Z,4832.00
2018-10-05T10:09:48.528Z,4552.00
2018-10-05T10:10:48.453Z,4488.00
2018-10-05T10:11:48.465Z,4664.00
2018-10-05T10:12:48.470Z,4944.00
2018-10-05T10:13:48.585Z,4580.00
2018-10-05T10:14:48.635Z,5124.00
2018-10-05T10:15:48.520Z,4684.00
2018-10-05T10:16:48.522Z,5232.00
2018-10-05T10:17:48.534Z,4832.00
2018-10-05T10:18:48.552Z,3708.00
2018-10-05T10:19:48.741Z,3820.00
2018-10-05T10:20:48.579Z,4444.00
2018-10-05T10:21:48.593Z,3968.00
2018-10-05T10:22:48.764Z,4656.00
2018-10-05T10:23:48.631Z,4188.00
2018-10-05T10:24:48.812Z,3836.00
2018-10-05T10:25:48.643Z,4980.00
2018-10-05T10:26:48.661Z,5548.00
2018-10-05T10:27:48.738Z,5336.00
2018-10-05T10:28:48.848Z,5240.00
2018-10-05T10:29:48.854Z,4572.00
2018-10-05T10:30:48.714Z,4020.00
2018-10-05T10:31:48.721Z,4568.00
2018-10-05T10:32:48.752Z,4888.00
2018-10-05T10:33:48.923Z,4388.00
2018-10-05T10:34:48.971Z,4016.00
2018-10-05T10:35:48.797Z,4364.00
2018-10-05T10:36:48.878Z,5060.00
2018-10-05T10:37:48.868Z,4672.00
2018-10-05T10:38:48.827Z,4552.00
2018-10-05T10:39:49.059Z,4008.00
2018-10-05T10:40:48.862Z,4052.00
2018-10-05T10:41:48.879Z,4416.00
2018-10-05T10:42:48.877Z,5372.00
2018-10-05T10:43:48.908Z,5204.00
2018-10-05T10:44:49.069Z,4780.00
2018-10-05T10:45:48.923Z,4896.00
2018-10-05T10:46:48.949Z,6032.00
2018-10-05T10:47:48.967Z,5576.00
2018-10-05T10:48:48.966Z,5896.00
2018-10-05T10:49:49.098Z,5752.00
2018-10-05T10:50:48.990Z,6540.00
2018-10-05T10:51:49.003Z,7320.00
2018-10-05T10:52:49.071Z,7320.00
2018-10-05T10:53:49.193Z,6856.00
2018-10-05T10:54:49.213Z,6824.00
2018-10-05T10:55:49.080Z,6260.00
2018-10-05T10:56:49.079Z,5748.00
2018-10-05T10:57:49.216Z,5884.00
2018-10-05T10:58:49.106Z,6212.00
2018-10-05T10:59:49.266Z,6908.00
2018-10-05T11:00:49.238Z,7444.00
2018-10-05T11:01:49.274Z,6992.00
2018-10-05T11:02:49.170Z,6296.00
2018-10-05T11:03:49.185Z,5712.00
2018-10-05T11:04:49.304Z,5508.00
2018-10-05T11:05:49.211Z,6096.00
2018-10-05T11:06:49.230Z,6400.00
2018-10-05T11:07:49.282Z,6708.00
2018-10-05T11:08:49.245Z,6800.00
2018-10-05T11:09:49.436Z,6316.00
2018-10-05T11:10:49.297Z,5700.00
2018-10-05T11:11:49.312Z,5748.00
2018-10-05T11:12:49.436Z,6464.00
2018-10-05T11:13:49.321Z,7656.00
2018-10-05T11:14:49.444Z,6844.00
2018-10-05T11:15:49.353Z,6328.00
2018-10-05T11:16:49.376Z,7240.00
2018-10-05T11:17:49.396Z,6532.00
2018-10-05T11:18:49.573Z,6820.00
2018-10-05T11:19:49.457Z,7220.00
2018-10-05T11:20:49.426Z,6448.00
2018-10-05T11:21:49.441Z,6964.00
2018-10-05T11:22:49.473Z,7024.00
2018-10-05T11:23:49.629Z,6588.00
2018-10-05T11:24:49.480Z,6096.00
2018-10-05T11:25:49.508Z,5932.00
2018-10-05T11:26:49.524Z,6680.00
2018-10-05T11:27:49.543Z,6444.00
2018-10-05T11:28:49.687Z,6252.00
2018-10-05T11:29:49.655Z,5652.00
2018-10-05T11:30:49.591Z,6924.00
2018-10-05T11:31:49.593Z,7468.00
2018-10-05T11:32:49.625Z,6728.00
2018-10-05T11:33:49.789Z,6204.00
2018-10-05T11:34:49.632Z,5824.00
2018-10-05T11:35:49.650Z,5712.00
2018-10-05T11:36:49.677Z,5732.00
2018-10-05T11:37:49.704Z,5796.00
2018-10-05T11:38:49.800Z,5592.00
2018-10-05T11:39:49.718Z,5464.00
2018-10-05T11:40:49.739Z,5568.00
2018-10-05T11:41:49.734Z,6032.00
2018-10-05T11:42:49.768Z,5500.00
2018-10-05T11:43:49.910Z,5332.00
2018-10-05T11:44:49.792Z,4964.00
2018-10-05T11:45:49.925Z,5100.00
2018-10-05T11:46:49.942Z,5740.00
2018-10-05T11:47:49.950Z,6768.00
2018-10-05T11:48:49.953Z,6984.00
2018-10-05T11:49:49.981Z,7044.00
2018-10-05T11:50:49.891Z,6336.00
2018-10-05T11:51:49.894Z,5672.00
2018-10-05T11:52:49.892Z,6632.00
2018-10-05T11:53:50.056Z,6608.00
2018-10-05T11:54:49.938Z,6464.00
2018-10-05T11:55:50.066Z,7056.00
2018-10-05T11:56:49.967Z,7272.00
2018-10-05T11:57:49.991Z,7560.00
2018-10-05T11:58:50.177Z,7976.00
2018-10-05T11:59:50.051Z,7372.00
2018-10-05T12:00:50.021Z,6788.00
2018-10-05T12:01:50.043Z,7672.00
2018-10-05T12:02:50.060Z,7992.00
2018-10-05T12:03:50.208Z,7232.00
2018-10-05T12:04:50.084Z,7832.00
2018-10-05T12:05:50.094Z,7864.00
2018-10-05T12:06:50.099Z,6140.00
2018-10-05T12:07:50.129Z,7536.00
2018-10-05T12:08:50.230Z,9048.00
2018-10-05T12:09:50.171Z,9792.00
2018-10-05T12:10:50.183Z,10424.00
2018-10-05T12:11:50.181Z,8640.00
2018-10-05T12:12:50.205Z,8148.00
2018-10-05T12:13:50.477Z,7512.00
2018-10-05T12:14:50.215Z,8372.00
2018-10-05T12:15:50.230Z,8276.00
2018-10-05T12:16:50.292Z,7408.00
2018-10-05T12:17:50.284Z,8116.00
2018-10-05T12:18:50.326Z,9284.00
2018-10-05T12:19:50.347Z,8560.00
2018-10-05T12:20:50.437Z,9640.00
2018-10-05T12:21:50.337Z,9964.00
2018-10-05T12:22:50.359Z,10072.00
2018-10-05T12:23:50.378Z,9140.00
2018-10-05T12:24:50.493Z,9024.00
2018-10-05T12:25:50.607Z,9924.00
2018-10-05T12:26:50.415Z,9728.00
2018-10-05T12:27:50.417Z,9216.00
2018-10-05T12:28:50.441Z,9140.00
2018-10-05T12:29:50.498Z,9200.00
2018-10-05T12:30:50.518Z,10284.00
2018-10-05T12:31:50.601Z,9200.00
2018-10-05T12:32:50.496Z,7928.00
2018-10-05T12:33:50.507Z,7264.00
2018-10-05T12:34:50.647Z,7784.00
2018-10-05T12:35:50.643Z,6960.00
2018-10-05T12:36:50.601Z,6424.00
2018-10-05T12:37:50.623Z,6424.00
2018-10-05T12:38:50.591Z,6420.00
2018-10-05T12:39:50.724Z,6708.00
2018-10-05T12:40:50.758Z,7620.00
2018-10-05T12:41:50.667Z,8400.00
2018-10-05T12:42:50.642Z,7772.00
2018-10-05T12:43:50.673Z,7492.00
2018-10-05T12:44:50.676Z,6612.00
2018-10-05T12:45:50.795Z,6188.00
2018-10-05T12:46:50.724Z,6428.00
2018-10-05T12:47:50.770Z,6724.00
2018-10-05T12:48:50.765Z,6504.00
2018-10-05T12:49:50.872Z,6984.00
2018-10-05T12:50:50.868Z,6492.00
2018-10-05T12:51:50.779Z,6916.00
2018-10-05T12:52:50.796Z,7324.00
2018-10-05T12:53:50.816Z,7936.00
2018-10-05T12:54:50.816Z,8428.00
2018-10-05T12:55:50.978Z,7932.00